sensor_id;sensor_type;location;lat;lon;timestamp;pressure;altitude;pressure_sealevel;temperature;humidity
64253;BME280;50592;52.958;-7.470;2022-12-24T00:00:20;99010.03;;;5.52;100.00
64253;BME280;50592;52.958;-7.470;2022-12-24T00:02:46;99014.44;;;5.52;100.00
64253;BME280;50592;52.958;-7.470;2022-12-24T00:05:12;99010.31;;;5.49;100.00
64253;BME280;50592;52.958;-7.470;2022-12-24T00:07:38;99018.03;;;5.51;100.00
64253;BME280;50592;52.958;-7.470;2022-12-24T00:10:04;99022.31;;;5.52;100.00
64253;BME280;50592;52.958;-7.470;2022-12-24T00:12:31;99018.19;;;5.49;100.00
64253;BME280;50592;52.958;-7.470;2022-12-24T00:14:56;99021.75;;;5.48;100.00
64253;BME280;50592;52.958;-7.470;2022-12-24T00:17:22;99025.22;;;5.49;100.00
64253;BME280;50592;52.958;-7.470;2022-12-24T00:19:48;99029.13;;;5.44;100.00
64253;BME280;50592;52.958;-7.470;2022-12-24T00:22:14;99033.53;;;5.44;100.00
64253;BME280;50592;52.958;-7.470;2022-12-24T00:24:39;99038.22;;;5.40;100.00
64253;BME280;50592;52.958;-7.470;2022-12-24T00:27:05;99031.09;;;5.32;100.00
64253;BME280;50592;52.958;-7.470;2022-12-24T00:29:32;99028.91;;;5.28;100.00
64253;BME280;50592;52.958;-7.470;2022-12-24T00:31:58;99034.44;;;5.25;100.00
64253;BME280;50592;52.958;-7.470;2022-12-24T00:34:24;99031.28;;;5.21;100.00
64253;BME280;50592;52.958;-7.470;2022-12-24T00:36:50;99028.00;;;5.19;100.00
64253;BME280;50592;52.958;-7.470;2022-12-24T00:39:16;99029.91;;;5.17;100.00
64253;BME280;50592;52.958;-7.470;2022-12-24T00:41:42;99031.84;;;5.15;100.00
64253;BME280;50592;52.958;-7.470;2022-12-24T00:44:08;99031.03;;;5.14;100.00
64253;BME280;50592;52.958;-7.470;2022-12-24T00:46:35;99043.16;;;5.15;100.00
64253;BME280;50592;52.958;-7.470;2022-12-24T00:49:01;99035.59;;;5.12;100.00
64253;BME280;50592;52.958;-7.470;2022-12-24T00:51:28;99037.53;;;5.10;100.00
64253;BME280;50592;52.958;-7.470;2022-12-24T00:53:54;99039.47;;;5.08;100.00
64253;BME280;50592;52.958;-7.470;2022-12-24T00:56:20;99037.00;;;5.06;100.00
64253;BME280;50592;52.958;-7.470;2022-12-24T00:58:47;99037.13;;;5.05;100.00
64253;BME280;50592;52.958;-7.470;2022-12-24T01:01:13;99038.78;;;5.06;100.00
64253;BME280;50592;52.958;-7.470;2022-12-24T01:03:39;99037.94;;;5.05;100.00
64253;BME280;50592;52.958;-7.470;2022-12-24T01:06:08;99044.03;;;5.06;100.00
64253;BME280;50592;52.958;-7.470;2022-12-24T01:08:34;99042.50;;;5.03;100.00
64253;BME280;50592;52.958;-7.470;2022-12-24T01:11:02;99044.31;;;5.03;100.00
64253;BME280;50592;52.958;-7.470;2022-12-24T01:13:28;99044.75;;;4.98;100.00
64253;BME280;50592;52.958;-7.470;2022-12-24T01:15:53;99045.84;;;4.95;100.00
64253;BME280;50592;52.958;-7.470;2022-12-24T01:18:20;99048.59;;;4.94;100.00
64253;BME280;50592;52.958;-7.470;2022-12-24T01:20:57;99045.97;;;4.94;100.00
64253;BME280;50592;52.958;-7.470;2022-12-24T01:23:23;99046.69;;;4.86;100.00
64253;BME280;50592;52.958;-7.470;2022-12-24T01:25:49;99044.22;;;4.84;100.00
64253;BME280;50592;52.958;-7.470;2022-12-24T01:28:14;99047.13;;;4.81;100.00
64253;BME280;50592;52.958;-7.470;2022-12-24T01:30:40;99043.84;;;4.79;100.00
64253;BME280;50592;52.958;-7.470;2022-12-24T01:33:06;99043.00;;;4.79;100.00
64253;BME280;50592;52.958;-7.470;2022-12-24T01:35:32;99047.41;;;4.78;100.00
64253;BME280;50592;52.958;-7.470;2022-12-24T01:37:58;99048.38;;;4.77;100.00
64253;BME280;50592;52.958;-7.470;2022-12-24T01:40:25;99061.31;;;4.79;100.00
64253;BME280;50592;52.958;-7.470;2022-12-24T01:43:18;99056.09;;;4.79;100.00
64253;BME280;50592;52.958;-7.470;2022-12-24T01:48:44;99059.78;;;4.76;100.00
64253;BME280;50592;52.958;-7.470;2022-12-24T01:54:13;99061.06;;;4.72;100.00
64253;BME280;50592;52.958;-7.470;2022-12-24T01:56:44;99060.66;;;4.67;100.00
64253;BME280;50592;52.958;-7.470;2022-12-24T01:59:14;99062.47;;;4.66;100.00
64253;BME280;50592;52.958;-7.470;2022-12-24T02:01:40;99058.59;;;4.61;100.00
64253;BME280;50592;52.958;-7.470;2022-12-24T02:04:12;99052.56;;;4.60;100.00
64253;BME280;50592;52.958;-7.470;2022-12-24T02:06:40;99051.59;;;4.51;100.00
64253;BME280;50592;52.958;-7.470;2022-12-24T02:09:06;99056.13;;;4.49;100.00
64253;BME280;50592;52.958;-7.470;2022-12-24T02:11:33;99060.81;;;4.45;100.00
64253;BME280;50592;52.958;-7.470;2022-12-24T02:14:01;99062.03;;;4.41;100.00
64253;BME280;50592;52.958;-7.470;2022-12-24T02:30:40;99064.41;;;4.25;100.00
64253;BME280;50592;52.958;-7.470;2022-12-24T02:33:32;99072.13;;;4.26;100.00
64253;BME280;50592;52.958;-7.470;2022-12-24T02:36:10;99072.81;;;4.28;100.00
64253;BME280;50592;52.958;-7.470;2022-12-24T02:39:11;99075.44;;;4.28;100.00
64253;BME280;50592;52.958;-7.470;2022-12-24T02:41:42;99071.84;;;4.29;100.00
64253;BME280;50592;52.958;-7.470;2022-12-24T02:44:30;99067.59;;;4.28;100.00
64253;BME280;50592;52.958;-7.470;2022-12-24T02:46:59;99070.06;;;4.30;100.00
64253;BME280;50592;52.958;-7.470;2022-12-24T02:49:26;99071.16;;;4.27;100.00
64253;BME280;50592;52.958;-7.470;2022-12-24T02:51:51;99071.28;;;4.26;100.00
64253;BME280;50592;52.958;-7.470;2022-12-24T02:54:17;99071.56;;;4.22;100.00
64253;BME280;50592;52.958;-7.470;2022-12-24T02:57:07;99074.88;;;4.25;100.00
64253;BME280;50592;52.958;-7.470;2022-12-24T03:00:02;99074.72;;;4.26;100.00
64253;BME280;50592;52.958;-7.470;2022-12-24T03:13:00;99079.84;;;4.38;100.00
64253;BME280;50592;52.958;-7.470;2022-12-24T03:15:28;99085.88;;;4.38;100.00
64253;BME280;50592;52.958;-7.470;2022-12-24T03:17:58;99074.19;;;4.42;100.00
64253;BME280;50592;52.958;-7.470;2022-12-24T03:20:35;99079.81;;;4.47;100.00
64253;BME280;50592;52.958;-7.470;2022-12-24T03:23:02;99080.66;;;4.48;100.00
64253;BME280;50592;52.958;-7.470;2022-12-24T03:25:31;99082.19;;;4.51;100.00
64253;BME280;50592;52.958;-7.470;2022-12-24T03:28:00;99079.28;;;4.54;100.00
64253;BME280;50592;52.958;-7.470;2022-12-24T03:30:35;99083.69;;;4.53;100.00
64253;BME280;50592;52.958;-7.470;2022-12-24T03:33:05;99069.75;;;4.53;100.00
64253;BME280;50592;52.958;-7.470;2022-12-24T03:35:31;99063.97;;;4.49;100.00
64253;BME280;50592;52.958;-7.470;2022-12-24T03:37:57;99066.06;;;4.45;100.00
64253;BME280;50592;52.958;-7.470;2022-12-24T03:40:23;99066.19;;;4.44;100.00
64253;BME280;50592;52.958;-7.470;2022-12-24T03:42:48;99070.59;;;4.43;100.00
64253;BME280;50592;52.958;-7.470;2022-12-24T03:45:14;99067.28;;;4.41;100.00
64253;BME280;50592;52.958;-7.470;2022-12-24T03:47:40;99071.97;;;4.38;100.00
64253;BME280;50592;52.958;-7.470;2022-12-24T03:50:06;99068.41;;;4.39;100.00
64253;BME280;50592;52.958;-7.470;2022-12-24T03:52:32;99073.91;;;4.36;100.00
64253;BME280;50592;52.958;-7.470;2022-12-24T03:54:58;99075.16;;;4.31;100.00
64253;BME280;50592;52.958;-7.470;2022-12-24T03:57:24;99074.31;;;4.31;100.00
64253;BME280;50592;52.958;-7.470;2022-12-24T03:59:50;99077.06;;;4.29;100.00
64253;BME280;50592;52.958;-7.470;2022-12-24T04:02:15;99075.28;;;4.30;100.00
64253;BME280;50592;52.958;-7.470;2022-12-24T04:04:41;99081.34;;;4.30;100.00
64253;BME280;50592;52.958;-7.470;2022-12-24T04:07:07;99078.72;;;4.30;100.00
64253;BME280;50592;52.958;-7.470;2022-12-24T04:09:33;99081.19;;;4.32;100.00
64253;BME280;50592;52.958;-7.470;2022-12-24T04:11:58;99063.72;;;4.32;100.00
64253;BME280;50592;52.958;-7.470;2022-12-24T04:14:24;99067.97;;;4.33;100.00
64253;BME280;50592;52.958;-7.470;2022-12-24T04:16:50;99070.72;;;4.32;100.00
64253;BME280;50592;52.958;-7.470;2022-12-24T04:19:16;99074.47;;;4.29;100.00
64253;BME280;50592;52.958;-7.470;2022-12-24T04:21:42;99070.47;;;4.25;100.00
64253;BME280;50592;52.958;-7.470;2022-12-24T04:24:07;99073.22;;;4.24;100.00
64253;BME280;50592;52.958;-7.470;2022-12-24T04:26:34;99077.75;;;4.21;100.00
64253;BME280;50592;52.958;-7.470;2022-12-24T04:29:00;99068.53;;;4.17;100.00
64253;BME280;50592;52.958;-7.470;2022-12-24T04:31:26;99064.69;;;4.12;100.00
64253;BME280;50592;52.958;-7.470;2022-12-24T04:33:52;99067.69;;;4.07;100.00
64253;BME280;50592;52.958;-7.470;2022-12-24T04:36:19;99072.22;;;4.05;100.00
64253;BME280;50592;52.958;-7.470;2022-12-24T04:38:46;99074.19;;;4.03;100.00
64253;BME280;50592;52.958;-7.470;2022-12-24T04:41:16;99071.84;;;4.00;100.00
64253;BME280;50592;52.958;-7.470;2022-12-24T04:43:42;99074.03;;;3.94;100.00
64253;BME280;50592;52.958;-7.470;2022-12-24T04:46:10;99065.34;;;3.94;100.00
64253;BME280;50592;52.958;-7.470;2022-12-24T04:48:39;99065.47;;;3.92;100.00
64253;BME280;50592;52.958;-7.470;2022-12-24T04:51:07;99065.47;;;3.92;100.00
64253;BME280;50592;52.958;-7.470;2022-12-24T04:53:37;99060.94;;;3.94;100.00
64253;BME280;50592;52.958;-7.470;2022-12-24T04:56:06;99052.00;;;3.97;100.00
64253;BME280;50592;52.958;-7.470;2022-12-24T04:58:32;99052.56;;;4.01;100.00
64253;BME280;50592;52.958;-7.470;2022-12-24T05:01:03;99058.34;;;4.04;100.00
64253;BME280;50592;52.958;-7.470;2022-12-24T05:03:29;99058.50;;;4.03;100.00
64253;BME280;50592;52.958;-7.470;2022-12-24T05:06:07;99059.03;;;4.06;100.00
64253;BME280;50592;52.958;-7.470;2022-12-24T05:08:33;99068.81;;;4.04;100.00
64253;BME280;50592;52.958;-7.470;2022-12-24T05:11:00;99069.47;;;4.06;100.00
64253;BME280;50592;52.958;-7.470;2022-12-24T05:13:27;99068.81;;;4.04;100.00
64253;BME280;50592;52.958;-7.470;2022-12-24T05:15:54;99064.53;;;4.03;100.00
64253;BME280;50592;52.958;-7.470;2022-12-24T05:18:20;99082.69;;;4.05;100.00
64253;BME280;50592;52.958;-7.470;2022-12-24T05:20:47;99084.38;;;4.06;100.00
64253;BME280;50592;52.958;-7.470;2022-12-24T05:23:21;99075.41;;;4.08;100.00
64253;BME280;50592;52.958;-7.470;2022-12-24T05:26:15;99056.25;;;4.08;100.00
64253;BME280;50592;52.958;-7.470;2022-12-24T05:28:52;99055.19;;;4.11;100.00
64253;BME280;50592;52.958;-7.470;2022-12-24T05:31:19;99067.44;;;4.10;100.00
64253;BME280;50592;52.958;-7.470;2022-12-24T05:33:45;99067.00;;;4.15;100.00
64253;BME280;50592;52.958;-7.470;2022-12-24T05:36:11;99053.66;;;4.18;100.00
64253;BME280;50592;52.958;-7.470;2022-12-24T05:38:37;99062.06;;;4.21;100.00
64253;BME280;50592;52.958;-7.470;2022-12-24T05:41:04;99066.06;;;4.26;100.00
64253;BME280;50592;52.958;-7.470;2022-12-24T05:43:30;99059.59;;;4.30;100.00
64253;BME280;50592;52.958;-7.470;2022-12-24T05:46:00;99065.91;;;4.37;100.00
64253;BME280;50592;52.958;-7.470;2022-12-24T05:48:27;99061.25;;;4.41;100.00
64253;BME280;50592;52.958;-7.470;2022-12-24T05:50:53;99066.72;;;4.47;100.00
64253;BME280;50592;52.958;-7.470;2022-12-24T05:53:19;99065.34;;;4.53;100.00
64253;BME280;50592;52.958;-7.470;2022-12-24T05:55:45;99056.41;;;4.56;100.00
64253;BME280;50592;52.958;-7.470;2022-12-24T05:58:11;99067.41;;;4.59;100.00
64253;BME280;50592;52.958;-7.470;2022-12-24T06:00:37;99062.75;;;4.63;100.00
64253;BME280;50592;52.958;-7.470;2022-12-24T06:03:03;99066.16;;;4.64;100.00
64253;BME280;50592;52.958;-7.470;2022-12-24T06:05:29;99048.53;;;4.66;100.00
64253;BME280;50592;52.958;-7.470;2022-12-24T06:07:55;99048.38;;;4.67;100.00
64253;BME280;50592;52.958;-7.470;2022-12-24T06:10:21;99044.00;;;4.68;100.00
64253;BME280;50592;52.958;-7.470;2022-12-24T06:12:47;99046.47;;;4.69;100.00
64253;BME280;50592;52.958;-7.470;2022-12-24T06:15:13;99033.38;;;4.69;100.00
64253;BME280;50592;52.958;-7.470;2022-12-24T06:17:39;99037.34;;;4.74;100.00
64253;BME280;50592;52.958;-7.470;2022-12-24T06:20:05;99036.94;;;4.78;100.00
64253;BME280;50592;52.958;-7.470;2022-12-24T06:22:31;99030.47;;;4.82;100.00
64253;BME280;50592;52.958;-7.470;2022-12-24T06:24:57;99024.50;;;4.90;100.00
64253;BME280;50592;52.958;-7.470;2022-12-24T06:27:22;99023.25;;;4.94;100.00
64253;BME280;50592;52.958;-7.470;2022-12-24T06:29:48;99016.88;;;4.97;100.00
64253;BME280;50592;52.958;-7.470;2022-12-24T06:32:14;99014.09;;;5.08;100.00
64253;BME280;50592;52.958;-7.470;2022-12-24T06:34:40;99012.63;;;5.24;100.00
64253;BME280;50592;52.958;-7.470;2022-12-24T06:37:06;99017.25;;;5.40;100.00
64253;BME280;50592;52.958;-7.470;2022-12-24T06:39:32;99017.34;;;5.49;100.00
64253;BME280;50592;52.958;-7.470;2022-12-24T06:41:58;99022.00;;;5.55;100.00
64253;BME280;50592;52.958;-7.470;2022-12-24T06:44:23;99023.13;;;5.52;100.00
64253;BME280;50592;52.958;-7.470;2022-12-24T06:46:49;99020.81;;;5.49;100.00
64253;BME280;50592;52.958;-7.470;2022-12-24T06:49:15;99021.91;;;5.46;100.00
64253;BME280;50592;52.958;-7.470;2022-12-24T06:51:41;99010.91;;;5.43;100.00
64253;BME280;50592;52.958;-7.470;2022-12-24T06:54:06;99005.13;;;5.39;100.00
64253;BME280;50592;52.958;-7.470;2022-12-24T06:56:32;99005.88;;;5.31;100.00
64253;BME280;50592;52.958;-7.470;2022-12-24T06:58:58;99002.31;;;5.22;100.00
64253;BME280;50592;52.958;-7.470;2022-12-24T07:01:24;99001.09;;;5.17;100.00
64253;BME280;50592;52.958;-7.470;2022-12-24T07:03:49;98997.94;;;5.13;100.00
64253;BME280;50592;52.958;-7.470;2022-12-24T07:06:33;98980.28;;;5.15;100.00
64253;BME280;50592;52.958;-7.470;2022-12-24T07:08:59;98991.06;;;5.12;100.00
64253;BME280;50592;52.958;-7.470;2022-12-24T07:11:25;98991.75;;;5.14;100.00
64253;BME280;50592;52.958;-7.470;2022-12-24T07:13:51;98988.84;;;5.17;100.00
64253;BME280;50592;52.958;-7.470;2022-12-24T07:16:17;98993.78;;;5.20;100.00
64253;BME280;50592;52.958;-7.470;2022-12-24T07:18:42;98981.50;;;5.21;100.00
64253;BME280;50592;52.958;-7.470;2022-12-24T07:21:08;98991.81;;;5.22;100.00
64253;BME280;50592;52.958;-7.470;2022-12-24T07:23:35;98998.75;;;5.24;100.00
64253;BME280;50592;52.958;-7.470;2022-12-24T07:26:03;98986.44;;;5.24;100.00
64253;BME280;50592;52.958;-7.470;2022-12-24T07:28:29;98989.06;;;5.24;100.00
64253;BME280;50592;52.958;-7.470;2022-12-24T07:30:56;98991.53;;;5.26;100.00
64253;BME280;50592;52.958;-7.470;2022-12-24T07:33:23;98986.84;;;5.29;100.00
64253;BME280;50592;52.958;-7.470;2022-12-24T07:38:24;98986.41;;;5.34;100.00
64253;BME280;50592;52.958;-7.470;2022-12-24T07:40:50;98978.09;;;5.39;100.00
64253;BME280;50592;52.958;-7.470;2022-12-24T07:43:16;98968.00;;;5.44;100.00
64253;BME280;50592;52.958;-7.470;2022-12-24T07:45:42;98969.34;;;5.48;100.00
64253;BME280;50592;52.958;-7.470;2022-12-24T07:48:08;98975.13;;;5.52;100.00
64253;BME280;50592;52.958;-7.470;2022-12-24T07:50:33;98968.75;;;5.54;100.00
64253;BME280;50592;52.958;-7.470;2022-12-24T07:52:59;98966.53;;;5.59;100.00
64253;BME280;50592;52.958;-7.470;2022-12-24T07:55:25;98972.44;;;5.62;100.00
64253;BME280;50592;52.958;-7.470;2022-12-24T07:57:50;98972.31;;;5.63;100.00
64253;BME280;50592;52.958;-7.470;2022-12-24T08:00:16;98977.38;;;5.65;100.00
64253;BME280;50592;52.958;-7.470;2022-12-24T08:02:42;98978.38;;;5.64;100.00
64253;BME280;50592;52.958;-7.470;2022-12-24T08:05:08;98974.63;;;5.66;100.00
64253;BME280;50592;52.958;-7.470;2022-12-24T08:07:34;98976.25;;;5.67;100.00
64253;BME280;50592;52.958;-7.470;2022-12-24T08:10:00;98975.31;;;5.68;100.00
64253;BME280;50592;52.958;-7.470;2022-12-24T08:12:26;98970.88;;;5.69;100.00
64253;BME280;50592;52.958;-7.470;2022-12-24T08:14:52;98985.50;;;5.71;100.00
64253;BME280;50592;52.958;-7.470;2022-12-24T08:17:18;99001.22;;;5.71;100.00
64253;BME280;50592;52.958;-7.470;2022-12-24T08:19:43;99002.72;;;5.74;100.00
64253;BME280;50592;52.958;-7.470;2022-12-24T08:22:09;98994.84;;;5.74;100.00
64253;BME280;50592;52.958;-7.470;2022-12-24T08:24:35;99006.16;;;5.75;100.00
64253;BME280;50592;52.958;-7.470;2022-12-24T08:27:02;99003.09;;;5.79;100.00
64253;BME280;50592;52.958;-7.470;2022-12-24T08:29:28;99000.19;;;5.82;100.00
64253;BME280;50592;52.958;-7.470;2022-12-24T08:31:53;98996.13;;;5.88;100.00
64253;BME280;50592;52.958;-7.470;2022-12-24T08:34:19;98991.09;;;5.95;100.00
64253;BME280;50592;52.958;-7.470;2022-12-24T08:36:45;98987.19;;;5.99;100.00
64253;BME280;50592;52.958;-7.470;2022-12-24T08:39:11;98975.44;;;6.03;100.00
64253;BME280;50592;52.958;-7.470;2022-12-24T08:41:36;98970.56;;;6.08;100.00
64253;BME280;50592;52.958;-7.470;2022-12-24T08:44:02;98971.94;;;6.13;100.00
64253;BME280;50592;52.958;-7.470;2022-12-24T08:46:28;98968.03;;;6.17;100.00
64253;BME280;50592;52.958;-7.470;2022-12-24T08:48:54;98976.28;;;6.22;100.00
64253;BME280;50592;52.958;-7.470;2022-12-24T08:51:20;98969.56;;;6.28;100.00
64253;BME280;50592;52.958;-7.470;2022-12-24T08:53:46;98968.31;;;6.32;100.00
64253;BME280;50592;52.958;-7.470;2022-12-24T08:56:12;98968.16;;;6.33;100.00
64253;BME280;50592;52.958;-7.470;2022-12-24T08:58:38;98963.72;;;6.34;100.00
64253;BME280;50592;52.958;-7.470;2022-12-24T09:01:15;98972.13;;;6.38;100.00
64253;BME280;50592;52.958;-7.470;2022-12-24T09:03:42;98960.47;;;6.40;100.00
64253;BME280;50592;52.958;-7.470;2022-12-24T09:06:08;98956.59;;;6.44;100.00
64253;BME280;50592;52.958;-7.470;2022-12-24T09:08:35;98957.25;;;6.47;100.00
64253;BME280;50592;52.958;-7.470;2022-12-24T09:11:04;98956.94;;;6.50;100.00
64253;BME280;50592;52.958;-7.470;2022-12-24T09:13:30;98955.97;;;6.51;100.00
64253;BME280;50592;52.958;-7.470;2022-12-24T09:15:55;98958.44;;;6.52;100.00
64253;BME280;50592;52.958;-7.470;2022-12-24T09:18:22;98954.34;;;6.58;100.00
64253;BME280;50592;52.958;-7.470;2022-12-24T09:20:48;98962.75;;;6.62;100.00
64253;BME280;50592;52.958;-7.470;2022-12-24T09:23:14;98961.28;;;6.67;100.00
64253;BME280;50592;52.958;-7.470;2022-12-24T09:25:41;98964.97;;;6.75;100.00
64253;BME280;50592;52.958;-7.470;2022-12-24T09:28:07;98966.13;;;6.80;100.00
64253;BME280;50592;52.958;-7.470;2022-12-24T09:30:32;98959.28;;;6.88;100.00
64253;BME280;50592;52.958;-7.470;2022-12-24T09:32:58;98961.59;;;6.91;100.00
64253;BME280;50592;52.958;-7.470;2022-12-24T09:35:24;98960.28;;;6.95;100.00
64253;BME280;50592;52.958;-7.470;2022-12-24T09:37:50;98959.97;;;6.98;100.00
64253;BME280;50592;52.958;-7.470;2022-12-24T09:40:38;98954.25;;;7.03;100.00
64253;BME280;50592;52.958;-7.470;2022-12-24T09:43:13;98949.81;;;7.03;100.00
64253;BME280;50592;52.958;-7.470;2022-12-24T09:45:40;98963.75;;;6.95;100.00
64253;BME280;50592;52.958;-7.470;2022-12-24T09:48:13;98944.88;;;7.00;100.00
64253;BME280;50592;52.958;-7.470;2022-12-24T09:50:58;98943.56;;;7.04;100.00
64253;BME280;50592;52.958;-7.470;2022-12-24T09:56:18;98947.38;;;7.10;100.00
64253;BME280;50592;52.958;-7.470;2022-12-24T09:58:52;98954.63;;;7.16;100.00
64253;BME280;50592;52.958;-7.470;2022-12-24T10:01:19;98949.22;;;7.18;100.00
64253;BME280;50592;52.958;-7.470;2022-12-24T10:03:45;98952.69;;;7.27;100.00
64253;BME280;50592;52.958;-7.470;2022-12-24T10:06:13;98950.06;;;7.27;100.00
64253;BME280;50592;52.958;-7.470;2022-12-24T10:09:05;98957.47;;;7.31;100.00
64253;BME280;50592;52.958;-7.470;2022-12-24T10:15:02;98945.50;;;7.45;100.00
64253;BME280;50592;52.958;-7.470;2022-12-24T10:26:10;98952.94;;;7.67;100.00
64253;BME280;50592;52.958;-7.470;2022-12-24T10:31:04;98957.38;;;7.66;100.00
64253;BME280;50592;52.958;-7.470;2022-12-24T10:33:46;98949.47;;;7.66;100.00
64253;BME280;50592;52.958;-7.470;2022-12-24T10:36:21;98948.97;;;7.71;100.00
64253;BME280;50592;52.958;-7.470;2022-12-24T10:38:48;98941.09;;;7.71;100.00
64253;BME280;50592;52.958;-7.470;2022-12-24T10:41:14;98936.84;;;7.70;100.00
64253;BME280;50592;52.958;-7.470;2022-12-24T10:43:42;98933.72;;;7.75;100.00
64253;BME280;50592;52.958;-7.470;2022-12-24T10:46:37;98918.75;;;7.75;100.00
64253;BME280;50592;52.958;-7.470;2022-12-24T10:49:06;98923.03;;;7.76;100.00
64253;BME280;50592;52.958;-7.470;2022-12-24T10:51:55;98923.69;;;7.78;100.00
64253;BME280;50592;52.958;-7.470;2022-12-24T10:54:25;98916.13;;;7.75;100.00
64253;BME280;50592;52.958;-7.470;2022-12-24T10:56:56;98920.22;;;7.78;100.00
64253;BME280;50592;52.958;-7.470;2022-12-24T10:59:27;98920.06;;;7.79;100.00
64253;BME280;50592;52.958;-7.470;2022-12-24T11:01:57;98916.44;;;7.80;100.00
64253;BME280;50592;52.958;-7.470;2022-12-24T11:04:29;98923.53;;;7.80;100.00
64253;BME280;50592;52.958;-7.470;2022-12-24T11:07:03;98916.44;;;7.80;100.00
64253;BME280;50592;52.958;-7.470;2022-12-24T11:09:35;98907.59;;;7.81;100.00
64253;BME280;50592;52.958;-7.470;2022-12-24T11:12:03;98911.00;;;7.82;100.00
64253;BME280;50592;52.958;-7.470;2022-12-24T11:14:36;98916.28;;;7.82;100.00
64253;BME280;50592;52.958;-7.470;2022-12-24T11:17:03;98909.38;;;7.81;100.00
64253;BME280;50592;52.958;-7.470;2022-12-24T11:19:35;98913.66;;;7.82;100.00
64253;BME280;50592;52.958;-7.470;2022-12-24T11:22:17;98918.09;;;7.81;100.00
64253;BME280;50592;52.958;-7.470;2022-12-24T11:24:44;98930.25;;;7.82;100.00
64253;BME280;50592;52.958;-7.470;2022-12-24T11:32:42;98913.66;;;7.99;100.00
64253;BME280;50592;52.958;-7.470;2022-12-24T11:35:18;98908.56;;;7.97;100.00
64253;BME280;50592;52.958;-7.470;2022-12-24T11:40:43;98932.06;;;7.82;100.00
64253;BME280;50592;52.958;-7.470;2022-12-24T11:43:20;98947.84;;;7.74;100.00
64253;BME280;50592;52.958;-7.470;2022-12-24T11:45:54;98941.94;;;7.72;100.00
64253;BME280;50592;52.958;-7.470;2022-12-24T11:48:32;98936.81;;;7.62;100.00
64253;BME280;50592;52.958;-7.470;2022-12-24T11:51:06;98929.75;;;7.54;100.00
64253;BME280;50592;52.958;-7.470;2022-12-24T11:53:47;98909.69;;;7.44;100.00
64253;BME280;50592;52.958;-7.470;2022-12-24T11:58:57;98905.22;;;7.28;100.00
64253;BME280;50592;52.958;-7.470;2022-12-24T12:04:12;98889.41;;;7.20;100.00
64253;BME280;50592;52.958;-7.470;2022-12-24T12:06:48;98894.69;;;7.20;100.00
64253;BME280;50592;52.958;-7.470;2022-12-24T12:09:25;98892.22;;;7.18;100.00
64253;BME280;50592;52.958;-7.470;2022-12-24T12:12:21;98892.38;;;7.17;100.00
64253;BME280;50592;52.958;-7.470;2022-12-24T12:14:49;98894.03;;;7.18;100.00
64253;BME280;50592;52.958;-7.470;2022-12-24T12:17:33;98894.19;;;7.16;100.00
64253;BME280;50592;52.958;-7.470;2022-12-24T12:25:16;98884.81;;;7.14;100.00
64253;BME280;50592;52.958;-7.470;2022-12-24T12:27:46;98897.16;;;7.13;100.00
64253;BME280;50592;52.958;-7.470;2022-12-24T12:30:18;98903.38;;;7.12;100.00
64253;BME280;50592;52.958;-7.470;2022-12-24T12:35:25;98891.19;;;7.03;100.00
64253;BME280;50592;52.958;-7.470;2022-12-24T12:38:00;98884.78;;;6.97;100.00
64253;BME280;50592;52.958;-7.470;2022-12-24T12:54:26;98863.09;;;6.95;100.00
64253;BME280;50592;52.958;-7.470;2022-12-24T12:56:59;98866.72;;;6.94;100.00
64253;BME280;50592;52.958;-7.470;2022-12-24T13:05:06;98890.19;;;6.95;100.00
64253;BME280;50592;52.958;-7.470;2022-12-24T13:20:59;98847.31;;;6.87;100.00
64253;BME280;50592;52.958;-7.470;2022-12-24T13:23:26;98831.22;;;6.90;100.00
64253;BME280;50592;52.958;-7.470;2022-12-24T13:25:54;98843.41;;;6.91;100.00
64253;BME280;50592;52.958;-7.470;2022-12-24T13:31:29;98825.50;;;6.94;100.00
64253;BME280;50592;52.958;-7.470;2022-12-24T13:36:10;98815.66;;;6.97;100.00
64253;BME280;50592;52.958;-7.470;2022-12-24T13:38:40;98836.81;;;6.95;100.00
64253;BME280;50592;52.958;-7.470;2022-12-24T13:46:54;98807.25;;;6.93;100.00
64253;BME280;50592;52.958;-7.470;2022-12-24T13:49:45;98804.81;;;6.91;100.00
64253;BME280;50592;52.958;-7.470;2022-12-24T13:52:17;98813.66;;;6.90;100.00
64253;BME280;50592;52.958;-7.470;2022-12-24T13:57:29;98817.13;;;6.91;100.00
64253;BME280;50592;52.958;-7.470;2022-12-24T13:59:59;98817.13;;;6.91;100.00
64253;BME280;50592;52.958;-7.470;2022-12-24T14:02:28;98815.97;;;6.93;100.00
64253;BME280;50592;52.958;-7.470;2022-12-24T14:04:59;98812.34;;;6.94;100.00
64253;BME280;50592;52.958;-7.470;2022-12-24T14:07:26;98809.88;;;6.93;100.00
64253;BME280;50592;52.958;-7.470;2022-12-24T14:09:52;98813.50;;;6.92;100.00
64253;BME280;50592;52.958;-7.470;2022-12-24T14:12:46;98812.34;;;6.94;100.00
64253;BME280;50592;52.958;-7.470;2022-12-24T14:18:19;98799.53;;;6.91;100.00
64253;BME280;50592;52.958;-7.470;2022-12-24T14:20:54;98797.91;;;6.90;100.00
64253;BME280;50592;52.958;-7.470;2022-12-24T14:23:40;98786.56;;;6.90;100.00
64253;BME280;50592;52.958;-7.470;2022-12-24T14:26:17;98789.88;;;6.92;100.00
64253;BME280;50592;52.958;-7.470;2022-12-24T14:29:17;98793.50;;;6.91;100.00
64253;BME280;50592;52.958;-7.470;2022-12-24T14:31:50;98786.25;;;6.93;100.00
64253;BME280;50592;52.958;-7.470;2022-12-24T14:34:17;98782.47;;;6.87;100.00
64253;BME280;50592;52.958;-7.470;2022-12-24T14:36:43;98786.75;;;6.88;100.00
64253;BME280;50592;52.958;-7.470;2022-12-24T14:39:21;98792.00;;;6.88;100.00
64253;BME280;50592;52.958;-7.470;2022-12-24T14:47:44;98786.22;;;6.76;100.00
64253;BME280;50592;52.958;-7.470;2022-12-24T14:56:18;98755.69;;;6.67;100.00
64253;BME280;50592;52.958;-7.470;2022-12-24T14:58:46;98748.94;;;6.64;100.00
64253;BME280;50592;52.958;-7.470;2022-12-24T15:03:44;98714.97;;;6.63;100.00
64253;BME280;50592;52.958;-7.470;2022-12-24T15:06:11;98700.06;;;6.63;100.00
64253;BME280;50592;52.958;-7.470;2022-12-24T15:08:47;98690.72;;;6.61;100.00
64253;BME280;50592;52.958;-7.470;2022-12-24T15:11:18;98684.44;;;6.53;100.00
64253;BME280;50592;52.958;-7.470;2022-12-24T15:13:47;98676.75;;;6.60;100.00
64253;BME280;50592;52.958;-7.470;2022-12-24T15:16:27;98673.31;;;6.68;100.00